createdAt,value
2018-03-03T00:01:28.989Z,11.80
2018-03-03T00:03:58.527Z,11.27
2018-03-03T00:06:28.123Z,12.47
2018-03-03T00:08:57.661Z,11.03
2018-03-03T00:11:29.159Z,9.07
2018-03-03T00:13:58.811Z,9.70
2018-03-03T00:16:30.141Z,8.50
2018-03-03T00:19:00.702Z,7.40
2018-03-03T00:21:30.232Z,7.10
2018-03-03T00:24:21.202Z,6.27
2018-03-03T00:26:57.004Z,5.73
2018-03-03T00:29:26.584Z,6.00
2018-03-03T00:31:56.131Z,5.47
2018-03-03T00:34:25.800Z,4.77
2018-03-03T00:36:55.319Z,5.43
2018-03-03T00:39:24.920Z,4.70
2018-03-03T00:42:06.778Z,5.07
2018-03-03T00:44:36.336Z,4.80
2018-03-03T00:47:18.348Z,4.27
2018-03-03T00:49:48.051Z,5.10
2018-03-03T00:52:17.554Z,5.00
2018-03-03T00:54:47.116Z,4.40
2018-03-03T00:57:16.677Z,4.80
2018-03-03T00:59:46.253Z,5.10
2018-03-03T01:02:15.811Z,5.33
2018-03-03T01:04:45.374Z,5.10
2018-03-03T01:07:14.942Z,5.37
2018-03-03T01:09:44.548Z,6.90
2018-03-03T01:12:14.245Z,5.50
2018-03-03T01:14:49.814Z,6.07
2018-03-03T01:17:19.411Z,4.93
2018-03-03T01:19:48.955Z,4.73
2018-03-03T01:22:18.482Z,4.80
2018-03-03T01:24:48.007Z,4.77
2018-03-03T01:27:17.539Z,4.40
2018-03-03T01:29:47.098Z,4.90
2018-03-03T01:32:16.660Z,5.60
2018-03-03T01:34:59.003Z,5.00
2018-03-03T01:37:42.075Z,4.10
2018-03-03T01:40:14.223Z,3.80
2018-03-03T01:42:43.790Z,3.40
2018-03-03T01:45:13.366Z,3.63
2018-03-03T01:47:42.898Z,5.93
2018-03-03T01:50:12.440Z,5.20
2018-03-03T01:52:42.101Z,4.90
2018-03-03T01:55:11.609Z,5.40
2018-03-03T01:57:41.209Z,10.27
2018-03-03T02:00:18.400Z,8.83
2018-03-03T02:02:47.951Z,7.47
2018-03-03T02:05:18.657Z,8.60
2018-03-03T02:07:48.196Z,28.33
2018-03-03T02:10:17.755Z,11.50
2018-03-03T02:12:47.476Z,23.70
2018-03-03T02:15:17.023Z,20.10
2018-03-03T02:17:46.949Z,10.37
2018-03-03T02:20:16.488Z,7.40
2018-03-03T02:22:46.266Z,9.97
2018-03-03T02:25:29.862Z,8.93
2018-03-03T02:27:59.402Z,6.63
2018-03-03T02:30:28.997Z,5.27
2018-03-03T02:32:58.759Z,5.97
2018-03-03T02:35:41.775Z,9.50
2018-03-03T02:38:11.526Z,22.90
2018-03-03T02:40:41.110Z,10.50
2018-03-03T02:43:10.710Z,24.60
2018-03-03T02:45:46.486Z,15.13
2018-03-03T02:48:22.010Z,6.63
2018-03-03T02:50:51.597Z,7.10
2018-03-03T02:53:21.138Z,5.27
2018-03-03T02:55:50.793Z,4.53
2018-03-03T02:58:20.316Z,4.13
2018-03-03T03:00:55.762Z,5.37
2018-03-03T03:03:25.427Z,4.90
2018-03-03T03:05:55.007Z,3.87
2018-03-03T03:08:24.647Z,3.33
2018-03-03T03:10:54.226Z,3.60
2018-03-03T03:13:37.514Z,3.97
2018-03-03T03:16:07.279Z,3.30
2018-03-03T03:18:49.819Z,4.13
2018-03-03T03:21:24.210Z,3.83
2018-03-03T03:23:54.295Z,3.63
2018-03-03T03:26:23.865Z,3.77
2018-03-03T03:29:00.573Z,4.23
2018-03-03T03:31:30.137Z,3.60
2018-03-03T03:34:05.919Z,4.00
2018-03-03T03:36:35.492Z,4.83
2018-03-03T03:39:05.095Z,4.70
2018-03-03T03:41:34.650Z,5.30
2018-03-03T03:44:09.289Z,4.10
2018-03-03T03:46:38.961Z,4.50
2018-03-03T03:49:08.469Z,3.50
2018-03-03T03:51:38.239Z,3.83
2018-03-03T03:54:07.930Z,3.50
2018-03-03T03:56:56.589Z,4.00
2018-03-03T03:59:34.293Z,3.67
2018-03-03T04:02:03.843Z,4.20
2018-03-03T04:04:34.334Z,4.20
2018-03-03T04:07:03.865Z,3.53
2018-03-03T04:09:33.387Z,3.60
2018-03-03T04:12:02.986Z,3.90
2018-03-03T04:14:32.530Z,3.40
2018-03-03T04:17:02.105Z,4.00
2018-03-03T04:19:38.400Z,3.63
2018-03-03T04:22:11.261Z,3.47
2018-03-03T04:24:40.906Z,3.20
2018-03-03T04:27:10.491Z,4.03
2018-03-03T04:29:47.999Z,4.20
2018-03-03T04:32:17.654Z,3.40
2018-03-03T04:34:47.250Z,3.77
2018-03-03T04:37:16.822Z,3.40
2018-03-03T04:39:46.298Z,3.70
2018-03-03T04:42:29.118Z,3.97
2018-03-03T04:45:04.967Z,4.83
2018-03-03T04:47:34.578Z,4.27
2018-03-03T04:50:11.833Z,4.10
2018-03-03T04:52:41.460Z,3.53
2018-03-03T04:55:11.078Z,3.50
2018-03-03T04:57:40.765Z,3.40
2018-03-03T05:00:30.079Z,4.27
2018-03-03T05:03:05.378Z,3.80
2018-03-03T05:05:40.617Z,3.10
2018-03-03T05:08:25.022Z,3.00
2018-03-03T05:10:54.659Z,3.60
2018-03-03T05:13:40.395Z,3.30
2018-03-03T05:16:21.447Z,3.53
2018-03-03T05:18:56.772Z,3.40
2018-03-03T05:21:40.121Z,3.60
2018-03-03T05:24:23.368Z,3.30
2018-03-03T05:26:58.618Z,3.93
2018-03-03T05:29:45.332Z,3.23
2018-03-03T05:32:38.924Z,3.27
2018-03-03T05:35:27.166Z,2.93
2018-03-03T05:38:12.562Z,3.87
2018-03-03T05:40:47.711Z,3.13
2018-03-03T05:43:23.150Z,3.50
2018-03-03T05:45:58.424Z,3.00
2018-03-03T05:48:43.583Z,3.50
2018-03-03T05:51:29.286Z,3.20
2018-03-03T05:54:04.466Z,3.40
2018-03-03T05:56:34.102Z,4.13
2018-03-03T05:59:09.312Z,3.30
2018-03-03T06:01:58.679Z,3.50
2018-03-03T06:04:33.960Z,4.97
2018-03-03T06:07:07.760Z,3.03
2018-03-03T06:09:52.233Z,3.40
2018-03-03T06:12:22.003Z,3.57
2018-03-03T06:14:51.958Z,3.03
2018-03-03T06:17:26.718Z,3.20
2018-03-03T06:19:57.206Z,2.67
2018-03-03T06:22:26.832Z,3.47
2018-03-03T06:24:56.386Z,3.07
2018-03-03T06:27:26.354Z,3.70
2018-03-03T06:29:57.918Z,2.63
2018-03-03T06:32:27.890Z,2.40
2018-03-03T06:34:57.459Z,2.03
2018-03-03T06:37:27.071Z,2.37
2018-03-03T06:40:04.321Z,2.83
2018-03-03T06:42:33.888Z,2.70
2018-03-03T06:45:03.459Z,3.00
2018-03-03T06:47:33.056Z,3.90
2018-03-03T06:50:02.607Z,3.13
2018-03-03T06:52:32.212Z,3.20
2018-03-03T06:55:01.729Z,2.20
2018-03-03T06:57:37.413Z,2.53
2018-03-03T07:00:06.938Z,2.70
2018-03-03T07:02:36.477Z,2.20
2018-03-03T07:05:06.841Z,2.37
2018-03-03T07:07:36.410Z,2.67
2018-03-03T07:10:05.958Z,3.63
2018-03-03T07:12:35.544Z,2.80
2018-03-03T07:15:09.038Z,2.83
2018-03-03T07:17:38.585Z,2.43
2018-03-03T07:20:08.186Z,2.50
2018-03-03T07:22:37.763Z,2.03
2018-03-03T07:25:07.914Z,2.30
2018-03-03T07:27:37.766Z,2.63
2018-03-03T07:30:07.275Z,2.90
2018-03-03T07:32:37.036Z,2.53
2018-03-03T07:35:06.988Z,2.77
2018-03-03T07:37:37.086Z,2.50
2018-03-03T07:40:07.096Z,1.80
2018-03-03T07:42:41.324Z,1.50
2018-03-03T07:45:11.077Z,1.80
2018-03-03T07:47:40.671Z,2.33
2018-03-03T07:50:10.620Z,2.00
2018-03-03T07:52:46.966Z,1.77
2018-03-03T07:55:16.560Z,2.10
2018-03-03T07:57:46.290Z,2.00
2018-03-03T08:00:26.630Z,2.00
2018-03-03T08:02:56.266Z,2.13
2018-03-03T08:05:26.117Z,1.50
2018-03-03T08:07:55.789Z,2.20
2018-03-03T08:10:35.291Z,1.87
2018-03-03T08:13:04.882Z,2.17
2018-03-03T08:15:34.400Z,1.80
2018-03-03T08:18:03.975Z,2.40
2018-03-03T08:20:33.928Z,1.90
2018-03-03T08:23:03.845Z,2.50
2018-03-03T08:25:33.421Z,1.93
2018-03-03T08:28:16.374Z,1.43
2018-03-03T08:30:46.382Z,1.50
2018-03-03T08:33:15.874Z,2.03
2018-03-03T08:35:45.596Z,2.27
2018-03-03T08:38:22.475Z,2.53
2018-03-03T08:40:58.731Z,1.43
2018-03-03T08:43:29.042Z,2.37
2018-03-03T08:45:58.628Z,1.60
2018-03-03T08:48:28.162Z,2.33
2018-03-03T08:51:03.723Z,1.90
2018-03-03T08:53:33.540Z,1.60
2018-03-03T08:56:03.963Z,1.87
2018-03-03T08:58:33.490Z,2.00
2018-03-03T09:01:03.050Z,2.77
2018-03-03T09:03:32.894Z,2.13
2018-03-03T09:06:02.476Z,2.30
2018-03-03T09:08:39.265Z,2.17
2018-03-03T09:11:28.582Z,2.73
2018-03-03T09:13:58.168Z,2.80
2018-03-03T09:16:35.713Z,4.13
2018-03-03T09:19:12.495Z,1.80
2018-03-03T09:21:42.950Z,3.50
2018-03-03T09:24:12.481Z,3.80
2018-03-03T09:26:42.057Z,2.27
2018-03-03T09:29:11.599Z,3.07
2018-03-03T09:31:41.194Z,3.80
2018-03-03T09:34:18.750Z,4.17
2018-03-03T09:36:48.304Z,3.80
2018-03-03T09:39:17.892Z,3.57
2018-03-03T09:41:47.960Z,4.13
2018-03-03T09:44:17.966Z,4.47
2018-03-03T09:46:48.342Z,3.77
2018-03-03T09:49:19.300Z,3.87
2018-03-03T09:51:48.876Z,3.73
2018-03-03T09:54:18.741Z,2.60
2018-03-03T09:56:48.332Z,2.60
2018-03-03T09:59:17.902Z,3.13
2018-03-03T10:01:52.331Z,3.23
2018-03-03T10:04:18.089Z,2.20
2018-03-03T10:06:47.618Z,1.80
2018-03-03T10:09:17.184Z,2.50
2018-03-03T10:11:47.966Z,1.27
2018-03-03T10:14:18.922Z,2.33
2018-03-03T10:16:48.738Z,1.83
2018-03-03T10:19:18.275Z,1.80
2018-03-03T10:21:48.719Z,1.27
2018-03-03T10:24:18.272Z,1.93
2018-03-03T10:26:47.853Z,2.77
2018-03-03T10:29:23.598Z,1.70
2018-03-03T10:31:53.154Z,2.00
2018-03-03T10:34:22.704Z,1.80
2018-03-03T10:36:52.504Z,1.20
2018-03-03T10:39:22.010Z,3.03
2018-03-03T10:41:51.543Z,1.20
2018-03-03T10:44:21.386Z,1.10
2018-03-03T10:47:03.124Z,1.20
2018-03-03T10:49:32.699Z,0.97
2018-03-03T10:52:02.447Z,1.20
2018-03-03T10:54:32.027Z,0.80
2018-03-03T10:57:01.587Z,0.80
2018-03-03T10:59:31.409Z,1.00
2018-03-03T11:02:01.383Z,0.87
2018-03-03T11:04:31.219Z,0.90
2018-03-03T11:07:00.759Z,0.80
2018-03-03T11:09:30.335Z,0.80
2018-03-03T11:11:59.935Z,1.23
2018-03-03T11:14:29.810Z,1.20
2018-03-03T11:16:59.385Z,0.90
2018-03-03T11:19:29.154Z,0.93
2018-03-03T11:21:58.982Z,1.10
2018-03-03T11:24:28.650Z,0.90
2018-03-03T11:26:58.321Z,0.90
2018-03-03T11:29:28.236Z,0.80
2018-03-03T11:31:57.796Z,1.10
2018-03-03T11:34:27.363Z,1.23
2018-03-03T11:36:57.010Z,1.00
2018-03-03T11:39:26.795Z,1.00
2018-03-03T11:41:56.363Z,0.90
2018-03-03T11:44:25.891Z,0.80
2018-03-03T11:46:55.875Z,0.70
2018-03-03T11:49:34.146Z,1.07
2018-03-03T11:52:17.154Z,0.93
2018-03-03T11:54:46.695Z,0.80
2018-03-03T11:57:16.303Z,0.80
2018-03-03T11:59:46.012Z,1.00
2018-03-03T12:02:15.540Z,0.80
2018-03-03T12:04:45.196Z,0.90
2018-03-03T12:07:15.196Z,0.80
2018-03-03T12:09:44.811Z,0.93
2018-03-03T12:12:26.470Z,0.87
2018-03-03T12:14:56.324Z,0.90
2018-03-03T12:17:35.354Z,1.23
2018-03-03T12:20:05.238Z,3.10
2018-03-03T12:22:40.945Z,1.00
2018-03-03T12:25:10.735Z,1.10
2018-03-03T12:27:40.339Z,1.07
2018-03-03T12:30:10.228Z,1.70
2018-03-03T12:32:39.972Z,1.30
2018-03-03T12:35:09.533Z,1.77
2018-03-03T12:37:42.695Z,1.20
2018-03-03T12:40:12.508Z,1.00
2018-03-03T12:42:48.943Z,0.97
2018-03-03T12:45:18.489Z,1.03
2018-03-03T12:47:48.581Z,1.20
2018-03-03T12:50:18.118Z,0.83
2018-03-03T12:52:48.902Z,0.87
2018-03-03T12:55:18.960Z,1.20
2018-03-03T12:57:48.533Z,1.10
2018-03-03T13:00:18.106Z,0.90
2018-03-03T13:02:48.649Z,0.80
2018-03-03T13:05:18.195Z,1.00
2018-03-03T13:07:47.950Z,1.00
2018-03-03T13:10:17.697Z,0.90
2018-03-03T13:12:47.830Z,0.87
2018-03-03T13:15:17.381Z,1.20
2018-03-03T13:17:46.914Z,0.93
2018-03-03T13:20:16.461Z,0.90
2018-03-03T13:22:52.812Z,0.77
2018-03-03T13:25:22.379Z,0.97
2018-03-03T13:27:52.259Z,0.80
2018-03-03T13:30:21.853Z,1.00
2018-03-03T13:32:51.411Z,1.00
2018-03-03T13:35:21.014Z,1.60
2018-03-03T13:37:50.558Z,0.80
2018-03-03T13:40:20.142Z,0.70
2018-03-03T13:42:49.682Z,0.90
2018-03-03T13:45:19.284Z,1.00
2018-03-03T13:47:48.836Z,0.80
2018-03-03T13:50:18.448Z,1.00
2018-03-03T13:52:48.007Z,0.93
2018-03-03T13:55:17.581Z,0.87
2018-03-03T13:57:47.129Z,0.80
2018-03-03T14:00:17.406Z,0.90
2018-03-03T14:02:54.024Z,0.90
2018-03-03T14:05:23.654Z,1.10
2018-03-03T14:07:53.256Z,1.00
2018-03-03T14:10:24.472Z,1.00
2018-03-03T14:12:57.040Z,1.10
2018-03-03T14:15:26.744Z,0.90
2018-03-03T14:17:56.376Z,0.70
2018-03-03T14:20:25.964Z,0.80
2018-03-03T14:22:55.495Z,1.07
2018-03-03T14:25:25.110Z,0.90
2018-03-03T14:27:54.447Z,1.50
2018-03-03T14:30:30.109Z,1.30
2018-03-03T14:32:59.230Z,1.00
2018-03-03T14:35:28.913Z,1.30
2018-03-03T14:37:58.475Z,1.30
2018-03-03T14:40:28.046Z,1.50
2018-03-03T14:42:57.607Z,1.80
2018-03-03T14:45:36.625Z,2.90
2018-03-03T14:48:06.166Z,2.10
2018-03-03T14:50:35.719Z,1.67
2018-03-03T14:53:05.275Z,0.97
2018-03-03T14:55:34.846Z,2.37
2018-03-03T14:58:04.428Z,1.00
2018-03-03T15:00:40.761Z,1.10
2018-03-03T15:03:11.148Z,1.20
2018-03-03T15:05:42.326Z,1.30
2018-03-03T15:08:11.944Z,2.17
2018-03-03T15:10:47.522Z,1.80
2018-03-03T15:13:17.074Z,1.57
2018-03-03T15:15:51.350Z,1.70
2018-03-03T15:18:21.362Z,1.20
2018-03-03T15:20:50.949Z,1.27
2018-03-03T15:23:20.481Z,1.30
2018-03-03T15:25:50.272Z,1.40
2018-03-03T15:28:19.811Z,1.57
2018-03-03T15:30:49.603Z,1.40
2018-03-03T15:33:27.027Z,1.20
2018-03-03T15:35:56.555Z,1.47
2018-03-03T15:38:26.089Z,1.10
2018-03-03T15:40:55.616Z,1.40
2018-03-03T15:43:25.326Z,1.80
2018-03-03T15:45:54.929Z,1.27
2018-03-03T15:48:24.497Z,1.47
2018-03-03T15:50:54.388Z,1.20
2018-03-03T15:53:24.343Z,2.00
2018-03-03T15:55:54.426Z,1.83
2018-03-03T15:58:23.930Z,1.43
2018-03-03T16:00:59.557Z,2.00
2018-03-03T16:03:38.398Z,1.40
2018-03-03T16:06:07.909Z,1.67
2018-03-03T16:08:38.095Z,1.33
2018-03-03T16:11:07.640Z,1.40
2018-03-03T16:13:37.206Z,1.57
2018-03-03T16:16:06.835Z,1.10
2018-03-03T16:18:36.597Z,1.37
2018-03-03T16:21:06.371Z,1.43
2018-03-03T16:23:35.973Z,1.60
2018-03-03T16:26:05.521Z,1.53
2018-03-03T16:28:35.207Z,1.23
2018-03-03T16:31:04.773Z,1.30
2018-03-03T16:33:34.486Z,1.40
2018-03-03T16:36:04.061Z,1.90
2018-03-03T16:38:46.499Z,1.93
2018-03-03T16:41:17.130Z,2.43
2018-03-03T16:43:52.735Z,2.07
2018-03-03T16:46:22.762Z,1.10
2018-03-03T16:48:52.261Z,1.10
2018-03-03T16:51:22.751Z,1.90
2018-03-03T16:53:52.292Z,1.40
2018-03-03T16:56:22.024Z,1.80
2018-03-03T16:58:51.554Z,1.53
2018-03-03T17:01:21.079Z,1.57
2018-03-03T17:03:50.758Z,1.20
2018-03-03T17:06:20.336Z,1.67
2018-03-03T17:08:49.982Z,2.50
2018-03-03T17:11:19.547Z,1.17
2018-03-03T17:13:50.998Z,1.90
2018-03-03T17:16:20.572Z,1.13
2018-03-03T17:18:50.454Z,1.80
2018-03-03T17:21:21.245Z,1.20
2018-03-03T17:23:51.182Z,1.40
2018-03-03T17:26:27.940Z,3.20
2018-03-03T17:28:57.469Z,2.83
2018-03-03T17:31:27.000Z,1.50
2018-03-03T17:33:56.511Z,2.13
2018-03-03T17:36:26.133Z,1.97
2018-03-03T17:38:55.638Z,1.60
2018-03-03T17:41:36.739Z,4.00
2018-03-03T17:44:06.854Z,4.43
2018-03-03T17:46:37.357Z,3.40
2018-03-03T17:49:12.958Z,1.53
2018-03-03T17:51:42.488Z,1.60
2018-03-03T17:54:12.041Z,1.60
2018-03-03T17:56:41.590Z,1.40
2018-03-03T17:59:11.552Z,1.60
2018-03-03T18:01:41.143Z,1.90
2018-03-03T18:04:11.344Z,1.47
2018-03-03T18:06:48.160Z,2.00
2018-03-03T18:09:18.527Z,1.90
2018-03-03T18:11:54.178Z,1.90
2018-03-03T18:14:23.931Z,1.70
2018-03-03T18:16:53.497Z,1.30
2018-03-03T18:19:33.606Z,1.60
2018-03-03T18:22:03.216Z,1.50
2018-03-03T18:24:35.683Z,1.30
2018-03-03T18:27:05.259Z,1.30
2018-03-03T18:29:34.839Z,1.43
2018-03-03T18:32:04.446Z,2.93
2018-03-03T18:34:33.955Z,2.20
2018-03-03T18:37:03.500Z,1.50
2018-03-03T18:39:33.086Z,1.70
2018-03-03T18:42:03.507Z,2.17
2018-03-03T18:44:33.075Z,1.50
2018-03-03T18:47:02.944Z,1.70
2018-03-03T18:49:33.826Z,1.70
2018-03-03T18:52:04.642Z,1.53
2018-03-03T18:54:34.198Z,1.70
2018-03-03T18:57:04.227Z,2.03
2018-03-03T18:59:33.765Z,2.10
2018-03-03T19:02:03.397Z,3.03
2018-03-03T19:04:33.251Z,1.87
2018-03-03T19:07:03.665Z,1.63
2018-03-03T19:09:33.191Z,1.77
2018-03-03T19:12:02.833Z,1.90
2018-03-03T19:14:32.452Z,1.90
2018-03-03T19:17:02.008Z,1.50
2018-03-03T19:19:31.581Z,1.90
2018-03-03T19:22:01.416Z,3.10
2018-03-03T19:24:30.973Z,1.70
2018-03-03T19:27:01.886Z,1.83
2018-03-03T19:29:31.423Z,1.90
2018-03-03T19:32:00.967Z,1.70
2018-03-03T19:34:40.141Z,1.60
2018-03-03T19:37:09.776Z,1.30
2018-03-03T19:39:39.316Z,1.80
2018-03-03T19:42:08.879Z,1.70
2018-03-03T19:44:38.423Z,2.23
2018-03-03T19:47:08.012Z,2.23
2018-03-03T19:49:37.569Z,1.80
2018-03-03T19:52:07.184Z,2.00
2018-03-03T19:54:36.764Z,1.87
2018-03-03T19:57:24.659Z,1.80
2018-03-03T19:59:54.239Z,1.63
2018-03-03T20:02:23.984Z,1.87
2018-03-03T20:04:53.649Z,2.60
2018-03-03T20:07:23.291Z,1.90
2018-03-03T20:09:52.843Z,1.70
2018-03-03T20:12:28.934Z,2.20
2018-03-03T20:14:58.532Z,1.67
2018-03-03T20:17:28.087Z,1.97
2018-03-03T20:19:57.684Z,1.60
2018-03-03T20:22:27.312Z,2.13
2018-03-03T20:24:56.847Z,1.60
2018-03-03T20:27:26.757Z,1.30
2018-03-03T20:30:09.211Z,1.87
2018-03-03T20:32:39.000Z,1.27
2018-03-03T20:35:08.515Z,2.00
2018-03-03T20:37:38.035Z,1.80
2018-03-03T20:40:07.622Z,1.60
2018-03-03T20:42:37.976Z,1.80
2018-03-03T20:45:13.655Z,1.77
2018-03-03T20:47:43.199Z,2.20
2018-03-03T20:50:12.764Z,1.80
2018-03-03T20:52:49.368Z,1.63
2018-03-03T20:55:20.420Z,2.57
2018-03-03T20:57:49.935Z,1.60
2018-03-03T21:00:19.496Z,2.07
2018-03-03T21:02:49.344Z,1.10
2018-03-03T21:05:20.588Z,2.17
2018-03-03T21:07:50.615Z,1.73
2018-03-03T21:10:20.270Z,1.80
2018-03-03T21:13:02.389Z,1.90
2018-03-03T21:15:32.113Z,1.40
2018-03-03T21:18:01.640Z,2.00
2018-03-03T21:20:31.168Z,1.30
2018-03-03T21:23:13.980Z,1.60
2018-03-03T21:25:44.663Z,1.73
2018-03-03T21:28:20.686Z,2.30
2018-03-03T21:30:50.252Z,2.00
2018-03-03T21:33:19.932Z,1.50
2018-03-03T21:35:49.490Z,1.73
2018-03-03T21:38:25.297Z,1.33
2018-03-03T21:41:01.479Z,1.40
2018-03-03T21:43:31.036Z,1.50
2018-03-03T21:46:00.563Z,1.40
2018-03-03T21:48:30.083Z,1.43
2018-03-03T21:50:59.759Z,1.43
2018-03-03T21:53:29.785Z,1.47
2018-03-03T21:55:59.314Z,1.60
2018-03-03T21:58:28.963Z,1.60
2018-03-03T22:00:58.564Z,1.90
2018-03-03T22:03:31.194Z,1.60
2018-03-03T22:06:10.492Z,2.03
2018-03-03T22:08:40.048Z,1.50
2018-03-03T22:11:11.097Z,1.57
2018-03-03T22:13:40.626Z,2.10
2018-03-03T22:16:10.309Z,1.40
2018-03-03T22:18:40.298Z,1.77
2018-03-03T22:21:09.833Z,1.93
2018-03-03T22:23:45.405Z,1.73
2018-03-03T22:26:15.020Z,1.70
2018-03-03T22:28:44.928Z,1.70
2018-03-03T22:31:14.774Z,1.90
2018-03-03T22:33:44.300Z,1.93
2018-03-03T22:36:13.823Z,1.87
2018-03-03T22:38:45.451Z,2.10
2018-03-03T22:41:31.282Z,1.90
2018-03-03T22:44:07.106Z,1.73
2018-03-03T22:46:36.674Z,1.80
2018-03-03T22:49:06.221Z,2.17
2018-03-03T22:51:35.772Z,2.07
2018-03-03T22:54:24.835Z,1.57
2018-03-03T22:57:03.215Z,2.13
2018-03-03T22:59:32.743Z,2.40
2018-03-03T23:02:02.325Z,1.43
2018-03-03T23:04:32.065Z,3.30
2018-03-03T23:07:09.342Z,2.23
2018-03-03T23:09:39.631Z,1.90
2018-03-03T23:12:09.443Z,1.77
2018-03-03T23:14:39.102Z,2.10
2018-03-03T23:17:08.805Z,2.90
2018-03-03T23:19:39.639Z,2.03
2018-03-03T23:22:16.606Z,2.97
2018-03-03T23:24:54.960Z,1.50
2018-03-03T23:27:24.508Z,1.87
2018-03-03T23:29:54.070Z,2.20
2018-03-03T23:32:23.654Z,2.30
2018-03-03T23:34:59.202Z,1.90
2018-03-03T23:37:28.754Z,2.37
2018-03-03T23:39:58.277Z,2.70
2018-03-03T23:42:33.845Z,2.80
2018-03-03T23:45:03.391Z,2.20
2018-03-03T23:47:46.458Z,1.70
2018-03-03T23:50:16.034Z,2.10
2018-03-03T23:52:45.558Z,2.63
2018-03-03T23:55:15.132Z,2.50
2018-03-03T23:57:44.631Z,2.70
